sensor_id;sensor_type;location;lat;lon;timestamp;temperature;humidity
29295;DHT22;16305;48.566;8.846;2022-08-19T00:00:14;19.60;99.90
29295;DHT22;16305;48.566;8.846;2022-08-19T00:02:41;19.60;99.90
29295;DHT22;16305;48.566;8.846;2022-08-19T00:05:08;19.50;99.90
29295;DHT22;16305;48.566;8.846;2022-08-19T00:07:35;19.60;99.90
29295;DHT22;16305;48.566;8.846;2022-08-19T00:10:00;19.50;99.90
29295;DHT22;16305;48.566;8.846;2022-08-19T00:12:26;19.40;99.90
29295;DHT22;16305;48.566;8.846;2022-08-19T00:14:52;19.40;99.90
29295;DHT22;16305;48.566;8.846;2022-08-19T00:17:20;19.40;99.90
29295;DHT22;16305;48.566;8.846;2022-08-19T00:19:45;19.40;99.90
29295;DHT22;16305;48.566;8.846;2022-08-19T00:22:11;19.50;99.90
29295;DHT22;16305;48.566;8.846;2022-08-19T00:24:36;19.40;99.90
29295;DHT22;16305;48.566;8.846;2022-08-19T00:27:04;19.40;99.90
29295;DHT22;16305;48.566;8.846;2022-08-19T00:29:29;19.30;99.90
29295;DHT22;16305;48.566;8.846;2022-08-19T00:31:55;19.30;99.90
29295;DHT22;16305;48.566;8.846;2022-08-19T00:34:23;19.20;99.90
29295;DHT22;16305;48.566;8.846;2022-08-19T00:36:51;19.10;99.90
29295;DHT22;16305;48.566;8.846;2022-08-19T00:39:17;19.00;99.90
29295;DHT22;16305;48.566;8.846;2022-08-19T00:41:45;19.00;99.90
29295;DHT22;16305;48.566;8.846;2022-08-19T00:44:17;18.90;99.90
29295;DHT22;16305;48.566;8.846;2022-08-19T00:46:46;18.90;99.90
29295;DHT22;16305;48.566;8.846;2022-08-19T00:49:16;18.80;99.90
29295;DHT22;16305;48.566;8.846;2022-08-19T00:51:47;18.80;99.90
29295;DHT22;16305;48.566;8.846;2022-08-19T00:54:13;18.80;99.90
29295;DHT22;16305;48.566;8.846;2022-08-19T00:56:40;18.70;99.90
29295;DHT22;16305;48.566;8.846;2022-08-19T00:59:06;18.70;99.90
29295;DHT22;16305;48.566;8.846;2022-08-19T01:01:42;18.60;99.90
29295;DHT22;16305;48.566;8.846;2022-08-19T01:04:09;18.60;99.90
29295;DHT22;16305;48.566;8.846;2022-08-19T01:06:37;18.60;99.90
29295;DHT22;16305;48.566;8.846;2022-08-19T01:09:03;18.60;99.90
29295;DHT22;16305;48.566;8.846;2022-08-19T01:11:31;18.50;99.90
29295;DHT22;16305;48.566;8.846;2022-08-19T01:13:59;18.50;99.90
29295;DHT22;16305;48.566;8.846;2022-08-19T01:16:26;18.60;99.90
29295;DHT22;16305;48.566;8.846;2022-08-19T01:18:53;18.70;99.90
29295;DHT22;16305;48.566;8.846;2022-08-19T01:21:33;18.50;99.90
29295;DHT22;16305;48.566;8.846;2022-08-19T01:23:59;18.50;99.90
29295;DHT22;16305;48.566;8.846;2022-08-19T01:26:25;18.50;99.90
29295;DHT22;16305;48.566;8.846;2022-08-19T01:28:54;18.50;99.90
29295;DHT22;16305;48.566;8.846;2022-08-19T01:31:24;18.40;99.90
29295;DHT22;16305;48.566;8.846;2022-08-19T01:33:52;18.40;99.90
29295;DHT22;16305;48.566;8.846;2022-08-19T01:36:34;18.40;99.90
29295;DHT22;16305;48.566;8.846;2022-08-19T01:39:02;18.20;99.90
29295;DHT22;16305;48.566;8.846;2022-08-19T01:41:28;18.20;99.90
29295;DHT22;16305;48.566;8.846;2022-08-19T01:43:54;18.10;99.90
29295;DHT22;16305;48.566;8.846;2022-08-19T01:46:19;18.00;99.90
29295;DHT22;16305;48.566;8.846;2022-08-19T01:48:45;18.00;99.90
29295;DHT22;16305;48.566;8.846;2022-08-19T01:51:12;17.90;99.90
29295;DHT22;16305;48.566;8.846;2022-08-19T01:53:38;17.90;99.90
29295;DHT22;16305;48.566;8.846;2022-08-19T01:56:05;17.90;99.90
29295;DHT22;16305;48.566;8.846;2022-08-19T01:58:35;17.90;99.90
29295;DHT22;16305;48.566;8.846;2022-08-19T02:01:03;17.90;99.90
29295;DHT22;16305;48.566;8.846;2022-08-19T02:03:29;17.80;99.90
29295;DHT22;16305;48.566;8.846;2022-08-19T02:05:56;17.80;99.90
29295;DHT22;16305;48.566;8.846;2022-08-19T02:08:23;17.80;99.90
29295;DHT22;16305;48.566;8.846;2022-08-19T02:10:48;17.70;99.90
29295;DHT22;16305;48.566;8.846;2022-08-19T02:13:15;17.80;99.90
29295;DHT22;16305;48.566;8.846;2022-08-19T02:15:41;17.80;99.90
29295;DHT22;16305;48.566;8.846;2022-08-19T02:18:07;17.80;99.90
29295;DHT22;16305;48.566;8.846;2022-08-19T02:20:34;17.80;99.90
29295;DHT22;16305;48.566;8.846;2022-08-19T02:23:00;17.70;99.90
29295;DHT22;16305;48.566;8.846;2022-08-19T02:25:27;17.80;99.90
29295;DHT22;16305;48.566;8.846;2022-08-19T02:27:52;17.80;99.90
29295;DHT22;16305;48.566;8.846;2022-08-19T02:30:19;17.70;99.90
29295;DHT22;16305;48.566;8.846;2022-08-19T02:32:45;17.70;99.90
29295;DHT22;16305;48.566;8.846;2022-08-19T02:35:14;17.70;99.90
29295;DHT22;16305;48.566;8.846;2022-08-19T02:37:43;17.70;99.90
29295;DHT22;16305;48.566;8.846;2022-08-19T02:40:30;17.70;99.90
29295;DHT22;16305;48.566;8.846;2022-08-19T02:42:57;17.70;99.90
29295;DHT22;16305;48.566;8.846;2022-08-19T02:45:22;17.70;99.90
29295;DHT22;16305;48.566;8.846;2022-08-19T02:47:48;17.70;99.90
29295;DHT22;16305;48.566;8.846;2022-08-19T02:50:14;17.60;99.90
29295;DHT22;16305;48.566;8.846;2022-08-19T02:52:40;17.70;99.90
29295;DHT22;16305;48.566;8.846;2022-08-19T02:55:06;17.70;99.90
29295;DHT22;16305;48.566;8.846;2022-08-19T02:57:32;17.70;99.90
29295;DHT22;16305;48.566;8.846;2022-08-19T02:59:58;17.80;99.90
29295;DHT22;16305;48.566;8.846;2022-08-19T03:02:23;17.80;99.90
29295;DHT22;16305;48.566;8.846;2022-08-19T03:04:49;17.80;99.90
29295;DHT22;16305;48.566;8.846;2022-08-19T03:07:16;17.80;99.90
29295;DHT22;16305;48.566;8.846;2022-08-19T03:09:42;17.80;99.90
29295;DHT22;16305;48.566;8.846;2022-08-19T03:12:08;17.80;99.90
29295;DHT22;16305;48.566;8.846;2022-08-19T03:14:34;17.80;99.90
29295;DHT22;16305;48.566;8.846;2022-08-19T03:17:01;17.80;99.90
29295;DHT22;16305;48.566;8.846;2022-08-19T03:19:26;17.80;99.90
29295;DHT22;16305;48.566;8.846;2022-08-19T03:21:53;17.70;99.90
29295;DHT22;16305;48.566;8.846;2022-08-19T03:24:19;17.80;99.90
29295;DHT22;16305;48.566;8.846;2022-08-19T03:26:47;17.80;99.90
29295;DHT22;16305;48.566;8.846;2022-08-19T03:29:14;17.80;99.90
29295;DHT22;16305;48.566;8.846;2022-08-19T03:31:42;17.80;99.90
29295;DHT22;16305;48.566;8.846;2022-08-19T03:34:13;17.70;99.90
29295;DHT22;16305;48.566;8.846;2022-08-19T03:36:39;17.70;99.90
29295;DHT22;16305;48.566;8.846;2022-08-19T03:39:05;17.70;99.90
29295;DHT22;16305;48.566;8.846;2022-08-19T03:41:32;17.80;99.90
29295;DHT22;16305;48.566;8.846;2022-08-19T03:43:59;17.70;99.90
29295;DHT22;16305;48.566;8.846;2022-08-19T03:46:27;17.70;99.90
29295;DHT22;16305;48.566;8.846;2022-08-19T03:48:54;17.70;99.90
29295;DHT22;16305;48.566;8.846;2022-08-19T03:51:21;17.70;99.90
29295;DHT22;16305;48.566;8.846;2022-08-19T03:53:47;17.70;99.90
29295;DHT22;16305;48.566;8.846;2022-08-19T03:56:13;17.70;99.90
29295;DHT22;16305;48.566;8.846;2022-08-19T03:58:40;17.70;99.90
29295;DHT22;16305;48.566;8.846;2022-08-19T04:01:11;17.70;99.90
29295;DHT22;16305;48.566;8.846;2022-08-19T04:03:38;17.70;99.90
29295;DHT22;16305;48.566;8.846;2022-08-19T04:06:18;17.70;99.90
29295;DHT22;16305;48.566;8.846;2022-08-19T04:08:45;17.60;99.90
29295;DHT22;16305;48.566;8.846;2022-08-19T04:11:14;17.60;99.90
29295;DHT22;16305;48.566;8.846;2022-08-19T04:13:40;17.70;99.90
29295;DHT22;16305;48.566;8.846;2022-08-19T04:16:08;17.60;99.90
29295;DHT22;16305;48.566;8.846;2022-08-19T04:18:35;17.70;99.90
29295;DHT22;16305;48.566;8.846;2022-08-19T04:21:01;17.70;99.90
29295;DHT22;16305;48.566;8.846;2022-08-19T04:23:27;17.70;99.90
29295;DHT22;16305;48.566;8.846;2022-08-19T04:25:54;17.70;99.90
29295;DHT22;16305;48.566;8.846;2022-08-19T04:28:19;17.60;99.90
29295;DHT22;16305;48.566;8.846;2022-08-19T04:30:47;17.60;99.90
29295;DHT22;16305;48.566;8.846;2022-08-19T04:33:15;17.60;99.90
29295;DHT22;16305;48.566;8.846;2022-08-19T04:35:43;17.70;99.90
29295;DHT22;16305;48.566;8.846;2022-08-19T04:38:09;17.70;99.90
29295;DHT22;16305;48.566;8.846;2022-08-19T04:40:41;17.60;99.90
29295;DHT22;16305;48.566;8.846;2022-08-19T04:43:26;17.60;99.90
29295;DHT22;16305;48.566;8.846;2022-08-19T04:45:51;17.60;99.90
29295;DHT22;16305;48.566;8.846;2022-08-19T04:48:17;17.70;99.90
29295;DHT22;16305;48.566;8.846;2022-08-19T04:50:49;17.70;99.90
29295;DHT22;16305;48.566;8.846;2022-08-19T04:53:16;17.70;99.90
29295;DHT22;16305;48.566;8.846;2022-08-19T04:55:42;17.70;99.90
29295;DHT22;16305;48.566;8.846;2022-08-19T04:58:07;17.70;99.90
29295;DHT22;16305;48.566;8.846;2022-08-19T05:00:33;17.70;99.90
29295;DHT22;16305;48.566;8.846;2022-08-19T05:02:59;17.80;99.90
29295;DHT22;16305;48.566;8.846;2022-08-19T05:05:24;17.90;99.90
29295;DHT22;16305;48.566;8.846;2022-08-19T05:07:50;17.80;99.90
29295;DHT22;16305;48.566;8.846;2022-08-19T05:10:15;17.90;99.90
29295;DHT22;16305;48.566;8.846;2022-08-19T05:12:41;17.90;99.90
29295;DHT22;16305;48.566;8.846;2022-08-19T05:15:07;17.80;99.90
29295;DHT22;16305;48.566;8.846;2022-08-19T05:17:33;17.80;99.90
29295;DHT22;16305;48.566;8.846;2022-08-19T05:19:59;17.80;99.90
29295;DHT22;16305;48.566;8.846;2022-08-19T05:22:46;17.70;99.90
29295;DHT22;16305;48.566;8.846;2022-08-19T05:25:15;17.80;99.90
29295;DHT22;16305;48.566;8.846;2022-08-19T05:27:43;17.80;99.90
29295;DHT22;16305;48.566;8.846;2022-08-19T05:30:10;17.80;99.90
29295;DHT22;16305;48.566;8.846;2022-08-19T05:32:37;17.80;99.90
29295;DHT22;16305;48.566;8.846;2022-08-19T05:35:04;17.90;99.90
29295;DHT22;16305;48.566;8.846;2022-08-19T05:37:30;18.00;99.90
29295;DHT22;16305;48.566;8.846;2022-08-19T05:39:55;18.00;99.90
29295;DHT22;16305;48.566;8.846;2022-08-19T05:42:21;18.00;99.90
29295;DHT22;16305;48.566;8.846;2022-08-19T05:44:48;17.90;99.90
29295;DHT22;16305;48.566;8.846;2022-08-19T05:47:15;18.00;99.90
29295;DHT22;16305;48.566;8.846;2022-08-19T05:49:42;18.10;99.90
29295;DHT22;16305;48.566;8.846;2022-08-19T05:52:10;18.10;99.90
29295;DHT22;16305;48.566;8.846;2022-08-19T05:54:38;18.10;99.90
29295;DHT22;16305;48.566;8.846;2022-08-19T05:57:06;18.20;99.90
29295;DHT22;16305;48.566;8.846;2022-08-19T05:59:32;18.20;99.90
29295;DHT22;16305;48.566;8.846;2022-08-19T06:01:59;18.10;99.90
29295;DHT22;16305;48.566;8.846;2022-08-19T06:04:25;18.10;99.90
29295;DHT22;16305;48.566;8.846;2022-08-19T06:06:53;18.10;99.90
29295;DHT22;16305;48.566;8.846;2022-08-19T06:09:19;18.00;99.90
29295;DHT22;16305;48.566;8.846;2022-08-19T06:11:48;18.00;99.90
29295;DHT22;16305;48.566;8.846;2022-08-19T06:14:19;18.00;99.90
29295;DHT22;16305;48.566;8.846;2022-08-19T06:16:46;18.20;99.90
29295;DHT22;16305;48.566;8.846;2022-08-19T06:19:15;18.20;99.90
29295;DHT22;16305;48.566;8.846;2022-08-19T06:21:42;18.20;99.90
29295;DHT22;16305;48.566;8.846;2022-08-19T06:24:11;18.10;99.90
29295;DHT22;16305;48.566;8.846;2022-08-19T06:26:39;18.20;99.90
29295;DHT22;16305;48.566;8.846;2022-08-19T06:29:06;18.10;99.90
29295;DHT22;16305;48.566;8.846;2022-08-19T06:31:34;18.10;99.90
29295;DHT22;16305;48.566;8.846;2022-08-19T06:34:01;18.10;99.90
29295;DHT22;16305;48.566;8.846;2022-08-19T06:36:38;18.20;99.90
29295;DHT22;16305;48.566;8.846;2022-08-19T06:39:06;18.30;99.90
29295;DHT22;16305;48.566;8.846;2022-08-19T06:41:35;18.20;99.90
29295;DHT22;16305;48.566;8.846;2022-08-19T06:44:01;18.20;99.90
29295;DHT22;16305;48.566;8.846;2022-08-19T06:46:27;18.30;99.90
29295;DHT22;16305;48.566;8.846;2022-08-19T06:48:52;18.20;99.90
29295;DHT22;16305;48.566;8.846;2022-08-19T06:51:20;18.20;99.90
29295;DHT22;16305;48.566;8.846;2022-08-19T06:53:51;18.20;99.90
29295;DHT22;16305;48.566;8.846;2022-08-19T06:56:19;18.20;99.90
29295;DHT22;16305;48.566;8.846;2022-08-19T06:58:46;18.20;99.90
29295;DHT22;16305;48.566;8.846;2022-08-19T07:01:15;18.20;99.90
29295;DHT22;16305;48.566;8.846;2022-08-19T07:03:41;18.20;99.90
29295;DHT22;16305;48.566;8.846;2022-08-19T07:06:09;18.40;99.90
29295;DHT22;16305;48.566;8.846;2022-08-19T07:08:36;18.40;99.90
29295;DHT22;16305;48.566;8.846;2022-08-19T07:11:05;18.40;99.90
29295;DHT22;16305;48.566;8.846;2022-08-19T07:13:32;18.50;99.90
29295;DHT22;16305;48.566;8.846;2022-08-19T07:16:09;18.50;99.90
29295;DHT22;16305;48.566;8.846;2022-08-19T07:18:36;18.60;99.90
29295;DHT22;16305;48.566;8.846;2022-08-19T07:21:05;18.50;99.90
29295;DHT22;16305;48.566;8.846;2022-08-19T07:23:31;18.50;99.90
29295;DHT22;16305;48.566;8.846;2022-08-19T07:25:57;18.60;99.90
29295;DHT22;16305;48.566;8.846;2022-08-19T07:28:22;18.70;99.90
29295;DHT22;16305;48.566;8.846;2022-08-19T07:30:49;18.70;99.90
29295;DHT22;16305;48.566;8.846;2022-08-19T07:33:15;18.60;99.90
29295;DHT22;16305;48.566;8.846;2022-08-19T07:35:41;18.70;99.90
29295;DHT22;16305;48.566;8.846;2022-08-19T07:38:07;18.70;99.90
29295;DHT22;16305;48.566;8.846;2022-08-19T07:40:33;18.80;99.90
29295;DHT22;16305;48.566;8.846;2022-08-19T07:42:59;18.90;99.90
29295;DHT22;16305;48.566;8.846;2022-08-19T07:45:24;19.00;99.90
29295;DHT22;16305;48.566;8.846;2022-08-19T07:47:50;19.00;99.90
29295;DHT22;16305;48.566;8.846;2022-08-19T07:50:16;19.00;99.90
29295;DHT22;16305;48.566;8.846;2022-08-19T07:52:43;18.90;99.90
29295;DHT22;16305;48.566;8.846;2022-08-19T07:55:10;18.90;99.90
29295;DHT22;16305;48.566;8.846;2022-08-19T07:57:35;19.00;99.90
29295;DHT22;16305;48.566;8.846;2022-08-19T08:00:02;19.00;99.90
29295;DHT22;16305;48.566;8.846;2022-08-19T08:02:28;19.00;99.90
29295;DHT22;16305;48.566;8.846;2022-08-19T08:04:53;19.10;99.90
29295;DHT22;16305;48.566;8.846;2022-08-19T08:07:37;19.20;99.90
29295;DHT22;16305;48.566;8.846;2022-08-19T08:10:22;19.20;99.90
29295;DHT22;16305;48.566;8.846;2022-08-19T08:12:47;19.30;99.90
29295;DHT22;16305;48.566;8.846;2022-08-19T08:15:15;19.30;99.90
29295;DHT22;16305;48.566;8.846;2022-08-19T08:17:42;19.40;99.90
29295;DHT22;16305;48.566;8.846;2022-08-19T08:20:09;19.40;99.90
29295;DHT22;16305;48.566;8.846;2022-08-19T08:22:35;19.50;99.90
29295;DHT22;16305;48.566;8.846;2022-08-19T08:25:21;19.50;99.90
29295;DHT22;16305;48.566;8.846;2022-08-19T08:27:48;19.50;99.90
29295;DHT22;16305;48.566;8.846;2022-08-19T08:30:23;19.50;99.90
29295;DHT22;16305;48.566;8.846;2022-08-19T08:32:49;19.50;99.90
29295;DHT22;16305;48.566;8.846;2022-08-19T08:35:17;19.50;99.90
29295;DHT22;16305;48.566;8.846;2022-08-19T08:37:48;19.60;99.90
29295;DHT22;16305;48.566;8.846;2022-08-19T08:43:29;19.70;99.90
29295;DHT22;16305;48.566;8.846;2022-08-19T08:46:06;19.70;99.90
29295;DHT22;16305;48.566;8.846;2022-08-19T08:48:38;19.80;99.90
29295;DHT22;16305;48.566;8.846;2022-08-19T08:51:09;19.90;99.90
29295;DHT22;16305;48.566;8.846;2022-08-19T08:53:36;19.80;99.90
29295;DHT22;16305;48.566;8.846;2022-08-19T08:56:03;19.90;99.90
29295;DHT22;16305;48.566;8.846;2022-08-19T08:58:39;19.90;99.90
29295;DHT22;16305;48.566;8.846;2022-08-19T09:01:09;19.90;99.90
29295;DHT22;16305;48.566;8.846;2022-08-19T09:03:37;19.90;99.90
29295;DHT22;16305;48.566;8.846;2022-08-19T09:11:56;20.10;99.90
29295;DHT22;16305;48.566;8.846;2022-08-19T09:17:08;20.00;99.90
29295;DHT22;16305;48.566;8.846;2022-08-19T09:19:36;20.00;99.90
29295;DHT22;16305;48.566;8.846;2022-08-19T09:22:11;20.00;99.90
29295;DHT22;16305;48.566;8.846;2022-08-19T09:24:37;20.00;99.90
29295;DHT22;16305;48.566;8.846;2022-08-19T09:27:03;20.00;99.90
29295;DHT22;16305;48.566;8.846;2022-08-19T09:29:29;19.90;99.90
29295;DHT22;16305;48.566;8.846;2022-08-19T09:31:55;19.90;99.90
29295;DHT22;16305;48.566;8.846;2022-08-19T09:34:21;19.90;99.90
29295;DHT22;16305;48.566;8.846;2022-08-19T09:36:46;19.90;99.90
29295;DHT22;16305;48.566;8.846;2022-08-19T09:39:17;19.90;99.90
29295;DHT22;16305;48.566;8.846;2022-08-19T09:41:43;19.80;99.90
29295;DHT22;16305;48.566;8.846;2022-08-19T09:44:08;19.80;99.90
29295;DHT22;16305;48.566;8.846;2022-08-19T09:46:34;19.70;99.90
29295;DHT22;16305;48.566;8.846;2022-08-19T09:49:01;19.80;99.90
29295;DHT22;16305;48.566;8.846;2022-08-19T09:51:27;19.70;99.90
29295;DHT22;16305;48.566;8.846;2022-08-19T09:53:58;19.70;99.90
29295;DHT22;16305;48.566;8.846;2022-08-19T09:56:24;19.70;99.90
29295;DHT22;16305;48.566;8.846;2022-08-19T09:58:50;19.70;99.90
29295;DHT22;16305;48.566;8.846;2022-08-19T10:01:22;19.70;99.90
29295;DHT22;16305;48.566;8.846;2022-08-19T10:03:53;19.70;99.90
29295;DHT22;16305;48.566;8.846;2022-08-19T10:06:20;19.70;99.90
29295;DHT22;16305;48.566;8.846;2022-08-19T10:08:46;19.80;99.90
29295;DHT22;16305;48.566;8.846;2022-08-19T10:11:13;19.80;99.90
29295;DHT22;16305;48.566;8.846;2022-08-19T10:13:42;19.90;99.90
29295;DHT22;16305;48.566;8.846;2022-08-19T10:16:14;20.00;99.90
29295;DHT22;16305;48.566;8.846;2022-08-19T10:18:41;19.90;99.90
29295;DHT22;16305;48.566;8.846;2022-08-19T10:21:23;19.90;99.90
29295;DHT22;16305;48.566;8.846;2022-08-19T10:23:52;19.90;99.90
29295;DHT22;16305;48.566;8.846;2022-08-19T10:26:27;19.90;99.90
29295;DHT22;16305;48.566;8.846;2022-08-19T10:28:53;19.90;99.90
29295;DHT22;16305;48.566;8.846;2022-08-19T10:31:22;19.90;99.90
29295;DHT22;16305;48.566;8.846;2022-08-19T10:33:49;19.90;99.90
29295;DHT22;16305;48.566;8.846;2022-08-19T10:36:21;19.90;99.90
29295;DHT22;16305;48.566;8.846;2022-08-19T10:38:50;19.90;99.90
29295;DHT22;16305;48.566;8.846;2022-08-19T10:41:19;20.00;99.90
29295;DHT22;16305;48.566;8.846;2022-08-19T10:43:45;20.10;99.90
29295;DHT22;16305;48.566;8.846;2022-08-19T10:46:15;20.20;99.90
29295;DHT22;16305;48.566;8.846;2022-08-19T10:48:42;20.20;99.90
29295;DHT22;16305;48.566;8.846;2022-08-19T10:51:08;20.30;99.90
29295;DHT22;16305;48.566;8.846;2022-08-19T10:53:54;20.50;99.90
29295;DHT22;16305;48.566;8.846;2022-08-19T10:56:20;20.50;99.90
29295;DHT22;16305;48.566;8.846;2022-08-19T10:59:05;20.50;99.90
29295;DHT22;16305;48.566;8.846;2022-08-19T11:01:32;20.50;99.90
29295;DHT22;16305;48.566;8.846;2022-08-19T11:04:03;20.50;99.90
29295;DHT22;16305;48.566;8.846;2022-08-19T11:06:31;20.50;99.90
29295;DHT22;16305;48.566;8.846;2022-08-19T11:08:56;20.50;99.90
29295;DHT22;16305;48.566;8.846;2022-08-19T11:11:23;20.50;99.90
29295;DHT22;16305;48.566;8.846;2022-08-19T11:13:49;20.60;99.90
29295;DHT22;16305;48.566;8.846;2022-08-19T11:16:25;20.70;99.90
29295;DHT22;16305;48.566;8.846;2022-08-19T11:18:54;20.70;99.90
29295;DHT22;16305;48.566;8.846;2022-08-19T11:21:23;20.70;99.90
29295;DHT22;16305;48.566;8.846;2022-08-19T11:23:52;20.80;99.90
29295;DHT22;16305;48.566;8.846;2022-08-19T11:26:19;20.80;99.90
29295;DHT22;16305;48.566;8.846;2022-08-19T11:28:46;20.90;99.90
29295;DHT22;16305;48.566;8.846;2022-08-19T11:31:18;20.90;99.90
29295;DHT22;16305;48.566;8.846;2022-08-19T11:33:44;20.90;99.90
29295;DHT22;16305;48.566;8.846;2022-08-19T11:36:11;20.90;99.90
29295;DHT22;16305;48.566;8.846;2022-08-19T11:38:37;21.00;99.90
29295;DHT22;16305;48.566;8.846;2022-08-19T11:41:05;21.00;99.90
29295;DHT22;16305;48.566;8.846;2022-08-19T11:43:32;21.10;99.90
29295;DHT22;16305;48.566;8.846;2022-08-19T11:45:58;21.10;99.90
29295;DHT22;16305;48.566;8.846;2022-08-19T11:48:25;21.10;99.90
29295;DHT22;16305;48.566;8.846;2022-08-19T11:50:53;21.10;99.90
29295;DHT22;16305;48.566;8.846;2022-08-19T11:53:22;21.20;99.90
29295;DHT22;16305;48.566;8.846;2022-08-19T11:55:48;21.20;99.90
29295;DHT22;16305;48.566;8.846;2022-08-19T11:58:15;21.20;99.90
29295;DHT22;16305;48.566;8.846;2022-08-19T12:00:42;21.20;99.90
29295;DHT22;16305;48.566;8.846;2022-08-19T12:03:10;21.20;99.90
29295;DHT22;16305;48.566;8.846;2022-08-19T12:05:37;21.10;99.90
29295;DHT22;16305;48.566;8.846;2022-08-19T12:08:03;21.20;99.90
29295;DHT22;16305;48.566;8.846;2022-08-19T12:10:29;21.30;99.90
29295;DHT22;16305;48.566;8.846;2022-08-19T12:12:55;21.40;99.90
29295;DHT22;16305;48.566;8.846;2022-08-19T12:15:20;21.50;99.90
29295;DHT22;16305;48.566;8.846;2022-08-19T12:17:46;21.50;99.90
29295;DHT22;16305;48.566;8.846;2022-08-19T12:20:13;21.60;99.90
29295;DHT22;16305;48.566;8.846;2022-08-19T12:22:40;21.80;99.90
29295;DHT22;16305;48.566;8.846;2022-08-19T12:25:07;22.10;99.90
29295;DHT22;16305;48.566;8.846;2022-08-19T12:27:33;22.10;99.90
29295;DHT22;16305;48.566;8.846;2022-08-19T12:29:58;22.20;99.90
29295;DHT22;16305;48.566;8.846;2022-08-19T12:32:26;22.30;99.90
29295;DHT22;16305;48.566;8.846;2022-08-19T12:34:52;22.40;99.90
29295;DHT22;16305;48.566;8.846;2022-08-19T12:37:17;22.50;99.90
29295;DHT22;16305;48.566;8.846;2022-08-19T12:39:43;22.60;99.90
29295;DHT22;16305;48.566;8.846;2022-08-19T12:42:10;22.70;99.90
29295;DHT22;16305;48.566;8.846;2022-08-19T12:44:38;22.90;99.90
29295;DHT22;16305;48.566;8.846;2022-08-19T12:47:05;23.00;99.90
29295;DHT22;16305;48.566;8.846;2022-08-19T12:49:33;23.10;99.90
29295;DHT22;16305;48.566;8.846;2022-08-19T12:52:00;23.40;99.90
29295;DHT22;16305;48.566;8.846;2022-08-19T12:54:27;23.70;99.90
29295;DHT22;16305;48.566;8.846;2022-08-19T12:56:52;23.70;99.90
29295;DHT22;16305;48.566;8.846;2022-08-19T12:59:18;23.70;99.90
29295;DHT22;16305;48.566;8.846;2022-08-19T13:01:44;23.70;99.90
29295;DHT22;16305;48.566;8.846;2022-08-19T13:04:10;23.80;99.90
29295;DHT22;16305;48.566;8.846;2022-08-19T13:06:35;23.80;99.90
29295;DHT22;16305;48.566;8.846;2022-08-19T13:09:01;23.80;99.90
29295;DHT22;16305;48.566;8.846;2022-08-19T13:11:27;23.90;99.90
29295;DHT22;16305;48.566;8.846;2022-08-19T13:13:57;23.80;99.90
29295;DHT22;16305;48.566;8.846;2022-08-19T13:16:23;23.80;99.90
29295;DHT22;16305;48.566;8.846;2022-08-19T13:18:50;23.90;99.90
29295;DHT22;16305;48.566;8.846;2022-08-19T13:21:20;23.90;99.90
29295;DHT22;16305;48.566;8.846;2022-08-19T13:23:46;23.50;99.90
29295;DHT22;16305;48.566;8.846;2022-08-19T13:26:13;23.20;99.90
29295;DHT22;16305;48.566;8.846;2022-08-19T13:28:39;23.20;99.90
29295;DHT22;16305;48.566;8.846;2022-08-19T13:31:26;23.20;99.90
29295;DHT22;16305;48.566;8.846;2022-08-19T13:34:11;23.30;99.90
29295;DHT22;16305;48.566;8.846;2022-08-19T13:36:37;23.30;99.90
29295;DHT22;16305;48.566;8.846;2022-08-19T13:39:04;23.40;99.90
29295;DHT22;16305;48.566;8.846;2022-08-19T13:41:30;23.40;99.90
29295;DHT22;16305;48.566;8.846;2022-08-19T13:43:56;23.30;99.90
29295;DHT22;16305;48.566;8.846;2022-08-19T13:46:22;23.40;99.90
29295;DHT22;16305;48.566;8.846;2022-08-19T13:48:48;23.30;99.90
29295;DHT22;16305;48.566;8.846;2022-08-19T13:51:15;23.30;99.90
29295;DHT22;16305;48.566;8.846;2022-08-19T13:53:42;23.30;99.90
29295;DHT22;16305;48.566;8.846;2022-08-19T13:56:10;23.30;99.90
29295;DHT22;16305;48.566;8.846;2022-08-19T13:58:36;23.40;99.90
29295;DHT22;16305;48.566;8.846;2022-08-19T14:01:03;23.50;99.90
29295;DHT22;16305;48.566;8.846;2022-08-19T14:03:30;23.50;99.90
29295;DHT22;16305;48.566;8.846;2022-08-19T14:05:55;23.50;99.90
29295;DHT22;16305;48.566;8.846;2022-08-19T14:08:22;23.60;99.90
29295;DHT22;16305;48.566;8.846;2022-08-19T14:10:47;23.70;99.90
29295;DHT22;16305;48.566;8.846;2022-08-19T14:13:16;23.70;99.90
29295;DHT22;16305;48.566;8.846;2022-08-19T14:15:42;23.70;99.90
29295;DHT22;16305;48.566;8.846;2022-08-19T14:18:08;23.70;99.90
29295;DHT22;16305;48.566;8.846;2022-08-19T14:20:35;23.70;99.90
29295;DHT22;16305;48.566;8.846;2022-08-19T14:23:01;23.50;99.90
29295;DHT22;16305;48.566;8.846;2022-08-19T14:25:29;23.30;99.90
29295;DHT22;16305;48.566;8.846;2022-08-19T14:27:55;23.40;99.90
29295;DHT22;16305;48.566;8.846;2022-08-19T14:30:27;23.30;99.90
29295;DHT22;16305;48.566;8.846;2022-08-19T14:32:54;23.20;99.90
29295;DHT22;16305;48.566;8.846;2022-08-19T14:35:20;23.00;99.90
29295;DHT22;16305;48.566;8.846;2022-08-19T14:37:48;22.90;99.90
29295;DHT22;16305;48.566;8.846;2022-08-19T14:40:19;23.00;99.90
29295;DHT22;16305;48.566;8.846;2022-08-19T14:42:51;23.10;99.90
29295;DHT22;16305;48.566;8.846;2022-08-19T14:45:17;23.10;99.90
29295;DHT22;16305;48.566;8.846;2022-08-19T14:47:42;23.10;99.90
29295;DHT22;16305;48.566;8.846;2022-08-19T14:50:10;23.10;99.90
29295;DHT22;16305;48.566;8.846;2022-08-19T14:52:36;23.10;99.90
29295;DHT22;16305;48.566;8.846;2022-08-19T14:55:02;23.20;99.90
29295;DHT22;16305;48.566;8.846;2022-08-19T14:57:27;23.20;99.90
29295;DHT22;16305;48.566;8.846;2022-08-19T14:59:53;23.30;99.90
29295;DHT22;16305;48.566;8.846;2022-08-19T15:02:18;23.30;99.90
29295;DHT22;16305;48.566;8.846;2022-08-19T15:04:45;23.20;99.90
29295;DHT22;16305;48.566;8.846;2022-08-19T15:07:11;23.30;99.90
29295;DHT22;16305;48.566;8.846;2022-08-19T15:09:36;23.40;99.90
29295;DHT22;16305;48.566;8.846;2022-08-19T15:12:03;23.40;99.90
29295;DHT22;16305;48.566;8.846;2022-08-19T15:14:29;23.50;99.90
29295;DHT22;16305;48.566;8.846;2022-08-19T15:17:00;23.60;99.90
29295;DHT22;16305;48.566;8.846;2022-08-19T15:19:26;23.50;99.90
29295;DHT22;16305;48.566;8.846;2022-08-19T15:21:51;23.50;99.90
29295;DHT22;16305;48.566;8.846;2022-08-19T15:24:19;23.50;99.90
29295;DHT22;16305;48.566;8.846;2022-08-19T15:26:45;23.40;99.90
29295;DHT22;16305;48.566;8.846;2022-08-19T15:29:10;23.30;99.90
29295;DHT22;16305;48.566;8.846;2022-08-19T15:31:39;23.20;99.90
29295;DHT22;16305;48.566;8.846;2022-08-19T15:34:05;23.20;99.90
29295;DHT22;16305;48.566;8.846;2022-08-19T15:36:31;23.20;99.90
29295;DHT22;16305;48.566;8.846;2022-08-19T15:38:57;23.20;99.90
29295;DHT22;16305;48.566;8.846;2022-08-19T15:41:28;23.20;99.90
29295;DHT22;16305;48.566;8.846;2022-08-19T15:44:06;23.20;99.90